Auxier, Kentucky
Current Conditions -  °F | °C
As of 7:55 PM on Saturday 22 Nov 2014 (Local Time) from KSJS Reporting Station
Overcast Overcast  
Wind Chill: 55°   Ceiling: 10000
Heat Index: 55°   Visibility: 10mi
Dew Point: 26°   Wind: 7mph
Humidity: 34%   Direction: 180°S
Pressure: 30.18"   Gusts: NA
Location:  37.74°N, 82.76°W
Report Text: KSJS 230055Z AUTO 18006KT 10SM OVC100 13/M03 A3018 RMK AO2 T01251032
Loading
Personal Weather Stations






























Interactive Weather Map New forecast layout! Learn more

10-Day Weather Forecast

Advertisements
Track Severe Weather on mobile